createdAt,value
2019-05-16T00:01:22.055Z,83.82
2019-05-16T00:03:48.918Z,83.78
2019-05-16T00:06:15.268Z,83.73
2019-05-16T00:08:41.370Z,83.71
2019-05-16T00:11:08.636Z,83.84
2019-05-16T00:13:34.772Z,83.90
2019-05-16T00:16:00.979Z,83.95
2019-05-16T00:18:28.436Z,83.96
2019-05-16T00:20:54.589Z,84.01
2019-05-16T00:23:20.589Z,84.06
2019-05-16T00:25:47.818Z,84.06
2019-05-16T00:28:13.901Z,84.00
2019-05-16T00:30:40.304Z,83.97
2019-05-16T00:33:08.271Z,84.10
2019-05-16T00:35:34.417Z,84.15
2019-05-16T00:38:00.421Z,84.13
2019-05-16T00:40:27.888Z,84.13
2019-05-16T00:42:54.165Z,83.96
2019-05-16T00:45:20.299Z,83.84
2019-05-16T00:47:47.975Z,83.92
2019-05-16T00:50:18.047Z,83.95
2019-05-16T00:52:43.653Z,84.08
2019-05-16T00:55:09.692Z,84.21
2019-05-16T00:57:36.003Z,84.15
2019-05-16T01:00:03.747Z,84.09
2019-05-16T01:02:29.949Z,84.06
2019-05-16T01:04:56.014Z,84.02
2019-05-16T01:07:22.118Z,84.05
2019-05-16T01:09:48.836Z,84.05
2019-05-16T01:12:15.151Z,84.12
2019-05-16T01:14:41.576Z,84.06
2019-05-16T01:17:08.646Z,84.10
2019-05-16T01:19:35.003Z,84.17
2019-05-16T01:22:01.143Z,84.26
2019-05-16T01:24:29.278Z,84.59
2019-05-16T01:26:57.689Z,84.65
2019-05-16T01:29:23.537Z,84.75
2019-05-16T01:31:49.535Z,84.64
2019-05-16T01:34:15.553Z,84.58
2019-05-16T01:36:41.682Z,84.60
2019-05-16T01:39:08.159Z,84.55
2019-05-16T01:41:34.153Z,84.52
2019-05-16T01:44:00.267Z,84.44
2019-05-16T01:46:28.318Z,84.38
2019-05-16T01:48:54.079Z,84.31
2019-05-16T01:51:20.089Z,84.22
2019-05-16T01:53:46.085Z,84.26
2019-05-16T01:56:12.093Z,84.29
2019-05-16T01:58:38.364Z,84.36
2019-05-16T02:01:12.247Z,84.27
2019-05-16T02:03:32.590Z,84.18
2019-05-16T02:05:58.720Z,84.37
2019-05-16T02:08:24.708Z,84.43
2019-05-16T02:10:50.827Z,84.28
2019-05-16T02:13:17.967Z,84.23
2019-05-16T02:15:44.435Z,84.16
2019-05-16T02:18:10.434Z,84.15
2019-05-16T02:20:39.035Z,84.21
2019-05-16T02:23:04.490Z,84.07
2019-05-16T02:25:30.595Z,84.02
2019-05-16T02:27:58.852Z,84.05
2019-05-16T02:30:24.684Z,84.00
2019-05-16T02:32:52.349Z,83.99
2019-05-16T02:35:21.051Z,84.05
2019-05-16T02:37:46.593Z,84.13
2019-05-16T02:40:16.317Z,84.34
2019-05-16T02:42:42.626Z,84.35
2019-05-16T02:45:10.964Z,84.21
2019-05-16T02:47:36.894Z,84.20
2019-05-16T02:50:04.399Z,84.28
2019-05-16T02:52:31.742Z,84.24
2019-05-16T02:55:00.617Z,84.18
2019-05-16T02:57:25.871Z,84.18
2019-05-16T02:59:51.818Z,84.16
2019-05-16T03:02:20.535Z,84.32
2019-05-16T03:04:46.202Z,84.27
2019-05-16T03:07:31.620Z,84.17
2019-05-16T03:09:41.140Z,84.13
2019-05-16T03:12:10.553Z,84.16
2019-05-16T03:14:35.949Z,84.46
2019-05-16T03:17:03.056Z,84.39
2019-05-16T03:19:31.298Z,84.25
2019-05-16T03:22:01.127Z,84.18
2019-05-16T03:24:26.924Z,84.13
2019-05-16T03:26:52.927Z,84.10
2019-05-16T03:29:21.617Z,84.22
2019-05-16T03:31:46.841Z,84.23
2019-05-16T03:34:16.240Z,84.23
2019-05-16T03:36:43.943Z,84.25
2019-05-16T03:39:10.680Z,84.19
2019-05-16T03:41:36.301Z,84.21
2019-05-16T03:44:02.396Z,84.15
2019-05-16T03:46:30.902Z,84.15
2019-05-16T03:48:56.300Z,84.11
2019-05-16T03:51:22.304Z,84.04
2019-05-16T03:53:50.750Z,84.09
2019-05-16T03:56:16.346Z,84.11
2019-05-16T03:58:42.452Z,84.17
2019-05-16T04:01:11.090Z,84.19
2019-05-16T04:03:36.384Z,84.17
2019-05-16T04:06:02.495Z,84.18
2019-05-16T04:08:31.089Z,84.24
2019-05-16T04:10:56.405Z,84.08
2019-05-16T04:13:22.531Z,83.93
2019-05-16T04:15:51.784Z,83.79
2019-05-16T04:18:16.463Z,83.67
2019-05-16T04:20:42.558Z,83.64
2019-05-16T04:23:11.222Z,83.64
2019-05-16T04:25:36.666Z,83.65
2019-05-16T04:28:03.018Z,83.73
2019-05-16T04:30:31.270Z,83.72
2019-05-16T04:32:57.081Z,83.81
2019-05-16T04:35:23.188Z,83.89
2019-05-16T04:37:51.331Z,83.97
2019-05-16T04:40:17.235Z,83.96
2019-05-16T04:42:43.357Z,83.84
2019-05-16T04:45:11.849Z,83.64
2019-05-16T04:47:41.365Z,83.33
2019-05-16T04:50:07.203Z,83.30
2019-05-16T04:52:33.209Z,83.42
2019-05-16T04:55:00.707Z,83.41
2019-05-16T04:57:27.017Z,83.30
2019-05-16T04:59:53.067Z,83.04
2019-05-16T05:02:21.318Z,82.73
2019-05-16T05:04:50.688Z,82.90
2019-05-16T05:07:15.119Z,83.13
2019-05-16T05:09:41.234Z,83.15
2019-05-16T05:12:07.370Z,82.79
2019-05-16T05:14:33.267Z,82.75
2019-05-16T05:17:01.413Z,82.82
2019-05-16T05:19:27.008Z,82.98
2019-05-16T05:21:52.932Z,83.02
2019-05-16T05:24:19.728Z,83.00
2019-05-16T05:26:45.896Z,83.02
2019-05-16T05:29:11.900Z,83.06
2019-05-16T05:31:43.553Z,83.03
2019-05-16T05:34:05.911Z,82.89
2019-05-16T05:36:31.920Z,82.77
2019-05-16T05:39:08.904Z,82.73
2019-05-16T05:41:25.749Z,82.68
2019-05-16T05:43:54.400Z,82.51
2019-05-16T05:46:20.579Z,82.58
2019-05-16T05:48:46.876Z,82.55
2019-05-16T05:51:12.992Z,82.60
2019-05-16T05:53:40.165Z,82.43
2019-05-16T05:56:06.509Z,82.20
2019-05-16T05:58:32.604Z,82.26
2019-05-16T06:01:00.679Z,82.20
2019-05-16T06:03:27.189Z,82.10
2019-05-16T06:05:53.192Z,82.31
2019-05-16T06:08:20.134Z,82.41
2019-05-16T06:10:47.120Z,82.62
2019-05-16T06:13:13.230Z,82.53
2019-05-16T06:15:40.046Z,82.46
2019-05-16T06:18:06.220Z,82.18
2019-05-16T06:20:32.233Z,82.17
2019-05-16T06:23:00.015Z,81.90
2019-05-16T06:25:26.217Z,82.00
2019-05-16T06:27:52.327Z,81.76
2019-05-16T06:30:20.644Z,81.37
2019-05-16T06:32:46.596Z,80.98
2019-05-16T06:35:12.838Z,80.81
2019-05-16T06:37:40.661Z,80.69
2019-05-16T06:40:07.171Z,80.67
2019-05-16T06:42:33.281Z,80.32
2019-05-16T06:45:00.804Z,80.32
2019-05-16T06:47:27.160Z,79.85
2019-05-16T06:49:53.173Z,79.65
2019-05-16T06:52:19.706Z,78.70
2019-05-16T06:54:46.032Z,78.81
2019-05-16T06:57:12.086Z,78.20
2019-05-16T06:59:40.362Z,77.62
2019-05-16T07:02:06.340Z,77.39
2019-05-16T07:04:32.484Z,77.64
2019-05-16T07:07:02.057Z,76.87
2019-05-16T07:09:26.443Z,75.88
2019-05-16T07:11:52.550Z,74.54
2019-05-16T07:14:22.521Z,75.18
2019-05-16T07:16:46.688Z,74.37
2019-05-16T07:19:12.692Z,73.79
2019-05-16T07:21:39.712Z,73.27
2019-05-16T07:24:06.000Z,72.76
2019-05-16T07:26:32.102Z,71.87
2019-05-16T07:29:00.340Z,71.80
2019-05-16T07:31:26.173Z,70.94
2019-05-16T07:33:52.281Z,70.32
2019-05-16T07:36:20.923Z,70.81
2019-05-16T07:38:46.429Z,69.81
2019-05-16T07:41:14.123Z,68.84
2019-05-16T07:43:40.450Z,68.97
2019-05-16T07:46:06.351Z,67.59
2019-05-16T07:48:32.455Z,66.96
2019-05-16T07:51:00.527Z,66.35
2019-05-16T07:53:26.570Z,66.09
2019-05-16T07:55:52.584Z,65.93
2019-05-16T07:58:21.923Z,66.00
2019-05-16T08:00:56.798Z,65.66
2019-05-16T08:03:14.800Z,65.15
2019-05-16T08:05:41.362Z,65.42
2019-05-16T08:08:07.612Z,65.54
2019-05-16T08:10:40.625Z,65.26
2019-05-16T08:13:03.336Z,64.96
2019-05-16T08:15:30.445Z,63.99
2019-05-16T08:17:56.632Z,64.86
2019-05-16T08:20:22.732Z,64.48
2019-05-16T08:22:50.791Z,64.05
2019-05-16T08:25:16.981Z,63.13
2019-05-16T08:27:43.089Z,62.57
2019-05-16T08:30:11.063Z,62.97
2019-05-16T08:32:37.477Z,62.74
2019-05-16T08:35:05.643Z,62.90
2019-05-16T08:37:38.452Z,61.94
2019-05-16T08:40:00.482Z,61.42
2019-05-16T08:42:26.680Z,61.23
2019-05-16T08:44:52.895Z,61.88
2019-05-16T08:47:21.317Z,61.87
2019-05-16T08:49:46.984Z,62.16
2019-05-16T08:52:13.091Z,61.84
2019-05-16T08:54:43.873Z,62.56
2019-05-16T08:59:35.135Z,62.81
2019-05-16T09:02:03.321Z,62.11
2019-05-16T09:04:33.591Z,62.08
2019-05-16T09:06:57.159Z,62.43
2019-05-16T09:10:34.105Z,62.53
2019-05-16T09:10:36.028Z,62.87
2019-05-16T09:11:51.181Z,62.27
2019-05-16T09:14:17.410Z,62.96
2019-05-16T09:16:43.587Z,61.74
2019-05-16T09:19:09.707Z,61.70
2019-05-16T09:21:38.471Z,62.04
2019-05-16T09:24:03.868Z,61.79
2019-05-16T09:26:30.347Z,61.29
2019-05-16T09:28:57.191Z,61.05
2019-05-16T09:31:24.120Z,61.11
2019-05-16T09:33:50.271Z,61.21
2019-05-16T09:36:17.463Z,60.56
2019-05-16T09:38:43.712Z,59.85
2019-05-16T09:41:09.817Z,59.28
2019-05-16T09:43:38.816Z,57.82
2019-05-16T09:46:04.302Z,58.17
2019-05-16T09:48:30.468Z,57.94
2019-05-16T09:50:57.750Z,57.55
2019-05-16T09:53:24.216Z,57.65
2019-05-16T09:55:50.327Z,57.92
2019-05-16T09:58:18.159Z,57.50
2019-05-16T10:00:47.285Z,57.26
2019-05-16T10:03:12.889Z,55.52
2019-05-16T10:05:39.027Z,56.91
2019-05-16T10:08:06.894Z,57.51
2019-05-16T10:10:33.257Z,57.10
2019-05-16T10:12:59.264Z,57.32
2019-05-16T10:15:27.009Z,57.57
2019-05-16T10:17:53.287Z,57.26
2019-05-16T10:20:19.607Z,57.01
2019-05-16T10:22:46.783Z,56.79
2019-05-16T10:25:19.069Z,57.36
2019-05-16T10:27:43.177Z,57.45
2019-05-16T10:30:09.809Z,57.09
2019-05-16T10:32:36.516Z,57.01
2019-05-16T10:35:04.733Z,56.64
2019-05-16T10:37:30.844Z,57.26
2019-05-16T10:39:59.815Z,57.15
2019-05-16T10:42:28.879Z,56.26
2019-05-16T10:44:53.031Z,56.04
2019-05-16T10:47:19.139Z,55.19
2019-05-16T10:49:47.499Z,55.11
2019-05-16T10:52:13.339Z,55.53
2019-05-16T10:54:54.210Z,55.16
2019-05-16T10:57:08.259Z,54.82
2019-05-16T10:59:57.869Z,54.39
2019-05-16T11:02:02.716Z,53.34
2019-05-16T11:04:42.148Z,52.82
2019-05-16T11:06:57.303Z,52.53
2019-05-16T11:09:23.586Z,53.05
2019-05-16T11:11:49.694Z,52.68
2019-05-16T11:14:17.370Z,51.48
2019-05-16T11:16:43.716Z,51.13
2019-05-16T11:19:17.272Z,51.39
2019-05-16T11:21:37.887Z,51.22
2019-05-16T11:24:04.436Z,51.30
2019-05-16T11:26:30.808Z,51.49
2019-05-16T11:28:56.920Z,51.66
2019-05-16T11:31:23.036Z,52.73
2019-05-16T11:33:49.141Z,51.84
2019-05-16T11:36:16.711Z,52.19
2019-05-16T11:38:43.000Z,52.66
2019-05-16T11:41:09.115Z,51.90
2019-05-16T11:43:36.695Z,52.23
2019-05-16T11:46:03.039Z,51.87
2019-05-16T11:48:29.745Z,51.28
2019-05-16T11:50:56.888Z,51.06
2019-05-16T11:53:23.276Z,51.71
2019-05-16T11:55:55.552Z,52.50
2019-05-16T11:58:18.192Z,53.16
2019-05-16T12:00:47.888Z,53.49
2019-05-16T12:03:12.808Z,53.22
2019-05-16T12:05:38.938Z,52.58
2019-05-16T12:08:07.675Z,52.77
2019-05-16T12:10:32.973Z,52.27
2019-05-16T12:12:59.085Z,53.08
2019-05-16T12:15:27.192Z,53.32
2019-05-16T12:18:01.849Z,52.76
2019-05-16T12:20:21.160Z,52.72
2019-05-16T12:22:47.213Z,51.80
2019-05-16T12:25:13.422Z,51.44
2019-05-16T12:27:42.278Z,51.84
2019-05-16T12:30:13.779Z,51.47
2019-05-16T12:32:36.714Z,50.93
2019-05-16T12:35:06.340Z,51.16
2019-05-16T12:37:32.331Z,50.36
2019-05-16T12:39:58.455Z,48.89
2019-05-16T12:42:26.927Z,48.42
2019-05-16T12:44:52.595Z,47.44
2019-05-16T12:47:18.603Z,47.91
2019-05-16T12:49:47.086Z,49.16
2019-05-16T12:52:12.768Z,49.60
2019-05-16T12:54:38.873Z,49.83
2019-05-16T12:57:04.980Z,49.65
2019-05-16T12:59:31.111Z,49.71
2019-05-16T13:01:57.781Z,50.53
2019-05-16T13:04:27.672Z,50.32
2019-05-16T13:06:52.097Z,50.54
2019-05-16T13:09:18.607Z,49.75
2019-05-16T13:11:47.091Z,50.42
2019-05-16T13:14:12.944Z,49.69
2019-05-16T13:16:39.077Z,49.84
2019-05-16T13:19:07.004Z,49.23
2019-05-16T13:21:33.121Z,50.21
2019-05-16T13:23:59.224Z,49.36
2019-05-16T13:26:25.363Z,49.32
2019-05-16T13:28:51.479Z,49.13
2019-05-16T13:31:17.528Z,49.94
2019-05-16T13:33:43.642Z,50.31
2019-05-16T13:36:09.755Z,50.80
2019-05-16T13:38:35.857Z,50.63
2019-05-16T13:41:02.020Z,52.03
2019-05-16T13:43:28.125Z,51.32
2019-05-16T13:45:54.232Z,50.71
2019-05-16T13:48:20.236Z,50.77
2019-05-16T13:50:47.459Z,50.72
2019-05-16T13:53:13.750Z,50.95
2019-05-16T13:55:39.855Z,50.97
2019-05-16T13:58:07.648Z,51.32
2019-05-16T14:00:34.082Z,51.51
2019-05-16T14:03:00.640Z,52.02
2019-05-16T14:05:26.906Z,52.75
2019-05-16T14:07:52.975Z,52.97
2019-05-16T14:10:21.345Z,53.01
2019-05-16T14:12:50.070Z,53.11
2019-05-16T14:15:17.866Z,52.01
2019-05-16T14:17:43.685Z,52.36
2019-05-16T14:20:14.676Z,52.37
2019-05-16T14:22:38.503Z,53.06
2019-05-16T14:25:07.127Z,53.17
2019-05-16T14:27:33.219Z,52.50
2019-05-16T14:29:59.318Z,52.90
2019-05-16T14:32:25.445Z,53.15
2019-05-16T14:34:52.038Z,53.08
2019-05-16T14:37:18.228Z,54.37
2019-05-16T14:39:44.399Z,55.57
2019-05-16T14:42:10.504Z,56.07
2019-05-16T14:44:58.182Z,56.88
2019-05-16T14:47:06.957Z,57.70
2019-05-16T14:49:32.581Z,59.55
2019-05-16T14:51:58.700Z,61.24
2019-05-16T14:54:26.842Z,62.34
2019-05-16T14:56:52.753Z,63.44
2019-05-16T14:59:18.880Z,63.90
2019-05-16T15:01:47.305Z,64.30
2019-05-16T15:04:13.022Z,64.70
2019-05-16T15:06:39.203Z,65.22
2019-05-16T15:09:07.581Z,65.65
2019-05-16T15:11:33.739Z,65.81
2019-05-16T15:13:59.839Z,65.84
2019-05-16T15:16:27.315Z,66.31
2019-05-16T15:18:53.618Z,66.32
2019-05-16T15:21:19.723Z,66.42
2019-05-16T15:23:45.837Z,66.57
2019-05-16T15:26:11.935Z,66.72
2019-05-16T15:28:38.047Z,66.12
2019-05-16T15:31:04.103Z,66.06
2019-05-16T15:33:30.203Z,65.94
2019-05-16T15:35:57.790Z,66.15
2019-05-16T15:38:24.025Z,66.25
2019-05-16T15:40:50.133Z,66.63
2019-05-16T15:43:18.110Z,66.74
2019-05-16T15:45:48.807Z,67.07
2019-05-16T15:48:12.303Z,67.35
2019-05-16T15:50:39.603Z,67.75
2019-05-16T15:53:07.991Z,68.28
2019-05-16T15:55:36.273Z,68.57
2019-05-16T15:58:02.597Z,68.93
2019-05-16T16:00:38.065Z,68.99
2019-05-16T16:03:06.860Z,69.46
2019-05-16T16:05:32.166Z,69.87
2019-05-16T16:07:58.180Z,70.30
2019-05-16T16:10:27.900Z,70.37
2019-05-16T16:12:53.808Z,70.68
2019-05-16T16:15:19.948Z,71.20
2019-05-16T16:17:46.959Z,71.31
2019-05-16T16:20:13.286Z,71.57
2019-05-16T16:22:39.423Z,71.87
2019-05-16T16:25:06.981Z,71.93
2019-05-16T16:27:33.239Z,72.08
2019-05-16T16:29:59.353Z,72.51
2019-05-16T16:32:26.909Z,72.55
2019-05-16T16:34:53.105Z,72.82
2019-05-16T16:37:19.144Z,72.89
2019-05-16T16:39:47.174Z,73.28
2019-05-16T16:42:13.302Z,73.31
2019-05-16T16:44:40.036Z,73.39
2019-05-16T16:47:06.781Z,73.36
2019-05-16T16:49:32.957Z,73.41
2019-05-16T16:51:59.075Z,73.03
2019-05-16T16:54:27.415Z,72.92
2019-05-16T16:56:53.121Z,73.09
2019-05-16T16:59:19.229Z,73.26
2019-05-16T17:01:46.511Z,73.52
2019-05-16T17:04:12.613Z,73.67
2019-05-16T17:06:38.552Z,73.80
2019-05-16T17:09:07.494Z,73.99
2019-05-16T17:11:33.467Z,74.05
2019-05-16T17:13:59.476Z,74.18
2019-05-16T17:16:28.941Z,74.45
2019-05-16T17:18:53.515Z,74.84
2019-05-16T17:21:19.620Z,75.26
2019-05-16T17:23:46.520Z,75.42
2019-05-16T17:26:12.887Z,75.46
2019-05-16T17:28:38.802Z,75.38
2019-05-16T17:31:07.081Z,75.43
2019-05-16T17:33:32.959Z,75.50
2019-05-16T17:35:58.936Z,75.42
2019-05-16T17:38:26.668Z,75.42
2019-05-16T17:40:53.054Z,75.54
2019-05-16T17:43:19.154Z,75.77
2019-05-16T17:45:46.969Z,76.02
2019-05-16T17:48:13.193Z,75.86
2019-05-16T17:50:39.303Z,75.81
2019-05-16T17:53:07.298Z,75.73
2019-05-16T17:55:33.678Z,75.63
2019-05-16T17:57:59.685Z,75.86
2019-05-16T18:00:28.954Z,75.80
2019-05-16T18:02:54.118Z,75.87
2019-05-16T18:05:20.425Z,76.15
2019-05-16T18:07:47.423Z,76.94
2019-05-16T18:10:15.963Z,77.47
2019-05-16T18:12:42.071Z,77.58
2019-05-16T18:15:10.540Z,77.66
2019-05-16T18:17:36.645Z,77.51
2019-05-16T18:20:06.518Z,76.74
2019-05-16T18:22:32.851Z,76.82
2019-05-16T18:24:58.898Z,77.04
2019-05-16T18:27:27.286Z,76.87
2019-05-16T18:29:52.911Z,76.38
2019-05-16T18:32:19.020Z,76.47
2019-05-16T18:34:45.159Z,76.63
2019-05-16T18:37:11.262Z,77.23
2019-05-16T18:39:37.304Z,76.79
2019-05-16T18:42:03.446Z,76.92
2019-05-16T18:44:29.548Z,77.20
2019-05-16T18:47:04.883Z,77.41
2019-05-16T18:49:24.100Z,77.77
2019-05-16T18:51:50.304Z,78.06
2019-05-16T18:54:17.240Z,78.12
2019-05-16T18:56:43.649Z,77.69
2019-05-16T18:59:09.775Z,77.46
2019-05-16T19:01:37.572Z,77.53
2019-05-16T19:04:03.817Z,77.74
2019-05-16T19:06:29.941Z,77.79
2019-05-16T19:08:58.253Z,77.91
2019-05-16T19:11:24.059Z,78.04
2019-05-16T19:13:50.162Z,78.07
2019-05-16T19:16:16.967Z,78.27
2019-05-16T19:18:43.217Z,78.36
2019-05-16T19:21:09.335Z,78.30
2019-05-16T19:23:37.579Z,78.32
2019-05-16T19:26:03.555Z,78.32
2019-05-16T19:28:29.679Z,78.70
2019-05-16T19:30:57.277Z,79.09
2019-05-16T19:33:23.419Z,79.67
2019-05-16T19:35:49.567Z,79.75
2019-05-16T19:38:17.020Z,79.32
2019-05-16T19:40:43.168Z,79.08
2019-05-16T19:43:09.485Z,79.31
2019-05-16T19:45:37.236Z,79.42
2019-05-16T19:48:03.610Z,79.43
2019-05-16T19:50:29.640Z,79.41
2019-05-16T19:52:56.748Z,79.37
2019-05-16T19:55:22.823Z,79.25
2019-05-16T19:57:48.858Z,79.37
2019-05-16T20:00:17.295Z,80.10
2019-05-16T20:02:43.510Z,79.81
2019-05-16T20:05:09.927Z,79.60
2019-05-16T20:07:37.154Z,79.50
2019-05-16T20:10:07.025Z,79.58
2019-05-16T20:12:36.873Z,79.59
2019-05-16T20:15:11.266Z,79.56
2019-05-16T20:17:36.465Z,79.60
2019-05-16T20:20:03.627Z,80.09
2019-05-16T20:22:29.623Z,80.16
2019-05-16T20:24:56.315Z,80.04
2019-05-16T20:27:22.590Z,79.83
2019-05-16T20:29:48.586Z,79.70
2019-05-16T20:32:16.744Z,79.79
2019-05-16T20:34:42.615Z,79.84
2019-05-16T20:37:09.355Z,79.93
2019-05-16T20:39:37.165Z,79.69
2019-05-16T20:42:03.491Z,79.57
2019-05-16T20:44:29.561Z,79.75
2019-05-16T20:46:56.741Z,79.87
2019-05-16T20:49:23.003Z,79.53
2019-05-16T20:51:50.030Z,79.47
2019-05-16T20:54:17.520Z,79.58
2019-05-16T20:56:43.747Z,79.89
2019-05-16T20:59:09.848Z,79.77
2019-05-16T21:01:36.012Z,79.89
2019-05-16T21:04:02.132Z,80.38
2019-05-16T21:06:28.266Z,79.74
2019-05-16T21:08:54.268Z,79.56
2019-05-16T21:11:20.375Z,79.55
2019-05-16T21:13:48.765Z,79.66
2019-05-16T21:16:16.411Z,79.45
2019-05-16T21:18:42.328Z,79.12
2019-05-16T21:21:08.426Z,79.07
2019-05-16T21:23:36.474Z,79.29
2019-05-16T21:26:02.550Z,79.73
2019-05-16T21:28:28.592Z,80.03
2019-05-16T21:30:56.713Z,79.96
2019-05-16T21:33:22.519Z,79.92
2019-05-16T21:35:48.633Z,79.83
2019-05-16T21:38:16.521Z,79.81
2019-05-16T21:40:42.752Z,79.90
2019-05-16T21:43:08.855Z,79.89
2019-05-16T21:45:37.119Z,79.85
2019-05-16T21:48:03.113Z,79.86
2019-05-16T21:50:29.241Z,79.98
2019-05-16T21:52:56.541Z,80.08
2019-05-16T21:55:22.800Z,80.18
2019-05-16T21:57:48.790Z,80.19
2019-05-16T22:00:29.481Z,80.28
2019-05-16T22:02:57.285Z,80.32
2019-05-16T22:05:23.549Z,80.18
2019-05-16T22:07:49.565Z,80.14
2019-05-16T22:10:15.692Z,80.12
2019-05-16T22:12:41.625Z,80.11
2019-05-16T22:15:07.768Z,80.32
2019-05-16T22:17:33.904Z,80.31
2019-05-16T22:20:00.063Z,80.33
2019-05-16T22:22:29.414Z,80.26
2019-05-16T22:24:57.091Z,80.29
2019-05-16T22:27:22.675Z,80.62
2019-05-16T22:29:48.976Z,80.99
2019-05-16T22:32:16.486Z,81.25
2019-05-16T22:34:42.640Z,81.18
2019-05-16T22:37:09.452Z,81.36
2019-05-16T22:39:37.100Z,80.85
2019-05-16T22:42:03.310Z,80.33
2019-05-16T22:44:29.443Z,80.55
2019-05-16T22:46:55.447Z,81.12
2019-05-16T22:49:21.464Z,80.87
2019-05-16T22:51:47.573Z,80.82
2019-05-16T22:54:13.482Z,81.01
2019-05-16T22:56:39.587Z,81.02
2019-05-16T22:59:07.197Z,80.76
2019-05-16T23:01:33.810Z,80.48
2019-05-16T23:03:59.821Z,80.55
2019-05-16T23:06:26.934Z,80.67
2019-05-16T23:08:53.052Z,80.94
2019-05-16T23:11:19.067Z,81.01
2019-05-16T23:13:46.274Z,80.95
2019-05-16T23:16:12.381Z,80.95
2019-05-16T23:18:38.379Z,80.78
2019-05-16T23:21:06.413Z,80.76
2019-05-16T23:23:32.325Z,81.05
2019-05-16T23:25:58.250Z,81.39
2019-05-16T23:28:27.045Z,81.64
2019-05-16T23:30:52.663Z,81.63
2019-05-16T23:33:18.763Z,81.40
2019-05-16T23:35:46.855Z,81.14
2019-05-16T23:38:19.288Z,80.86
2019-05-16T23:40:41.412Z,81.00
2019-05-16T23:43:07.846Z,81.18
2019-05-16T23:45:33.926Z,81.46
2019-05-16T23:48:00.268Z,81.66
2019-05-16T23:50:27.490Z,82.43
2019-05-16T23:52:56.209Z,83.24
2019-05-16T23:55:21.798Z,83.43
2019-05-16T23:57:47.951Z,83.16
